createdAt,value
2022-10-23T00:00:30.447Z,59.90
2022-10-23T00:01:52.129Z,59.86
2022-10-23T00:02:54.928Z,59.89
2022-10-23T00:04:06.556Z,59.86
2022-10-23T00:05:08.644Z,59.97
2022-10-23T00:06:11.936Z,59.99
2022-10-23T00:07:13.579Z,59.97
2022-10-23T00:08:15.400Z,60.13
2022-10-23T00:09:20.048Z,60.16
2022-10-23T00:10:23.698Z,60.19
2022-10-23T00:11:29.060Z,60.21
2022-10-23T00:12:30.805Z,60.17
2022-10-23T00:13:32.540Z,60.13
2022-10-23T00:14:35.096Z,60.10
2022-10-23T00:15:37.077Z,60.09
2022-10-23T00:16:38.872Z,60.03
2022-10-23T00:17:40.780Z,59.97
2022-10-23T00:18:42.712Z,59.91
2022-10-23T00:19:44.465Z,59.86
2022-10-23T00:20:46.108Z,59.78
2022-10-23T00:21:48.560Z,59.71
2022-10-23T00:22:50.231Z,59.64
2022-10-23T00:23:52.523Z,59.57
2022-10-23T00:24:54.162Z,59.50
2022-10-23T00:25:55.820Z,59.46
2022-10-23T00:26:57.488Z,59.41
2022-10-23T00:28:00.273Z,59.01
2022-10-23T00:29:01.995Z,58.87
2022-10-23T00:30:05.625Z,59.38
2022-10-23T00:31:07.278Z,60.34
2022-10-23T00:32:08.990Z,61.75
2022-10-23T00:33:11.084Z,63.23
2022-10-23T00:34:12.791Z,64.85
2022-10-23T00:35:15.824Z,65.26
2022-10-23T00:36:19.742Z,64.92
2022-10-23T00:37:21.870Z,64.29
2022-10-23T00:38:23.765Z,63.62
2022-10-23T00:39:25.490Z,63.05
2022-10-23T00:40:27.807Z,62.51
2022-10-23T00:41:32.177Z,62.16
2022-10-23T00:42:33.894Z,61.81
2022-10-23T00:44:00.277Z,61.75
2022-10-23T00:45:17.965Z,61.45
2022-10-23T00:46:19.660Z,61.19
2022-10-23T00:47:21.706Z,61.03
2022-10-23T00:48:24.076Z,60.90
2022-10-23T00:49:26.402Z,60.80
2022-10-23T00:50:31.456Z,60.67
2022-10-23T00:51:40.888Z,60.54
2022-10-23T00:52:48.426Z,60.42
2022-10-23T00:54:01.370Z,60.23
2022-10-23T00:55:16.321Z,60.16
2022-10-23T00:56:18.288Z,60.11
2022-10-23T00:57:20.077Z,60.02
2022-10-23T00:58:22.198Z,60.04
2022-10-23T00:59:24.425Z,60.03
2022-10-23T01:00:30.177Z,60.06
2022-10-23T01:01:33.997Z,60.01
2022-10-23T01:02:35.847Z,59.97
2022-10-23T01:03:37.609Z,59.96
2022-10-23T01:04:39.408Z,59.97
2022-10-23T01:06:00.247Z,59.95
2022-10-23T01:07:20.193Z,59.92
2022-10-23T01:08:38.464Z,59.88
2022-10-23T01:10:07.483Z,59.83
2022-10-23T01:11:20.492Z,59.74
2022-10-23T01:12:46.749Z,59.78
2022-10-23T01:15:20.327Z,59.69
2022-10-23T01:16:39.210Z,59.66
2022-10-23T01:18:20.908Z,59.62
2022-10-23T01:19:48.215Z,59.54
2022-10-23T01:21:16.312Z,59.45
2022-10-23T01:22:38.340Z,58.89
2022-10-23T01:23:54.454Z,59.07
2022-10-23T01:25:17.389Z,60.22
2022-10-23T01:27:11.062Z,61.85
2022-10-23T01:28:25.576Z,64.90
2022-10-23T01:29:59.331Z,65.52
2022-10-23T01:31:14.689Z,64.19
2022-10-23T01:32:27.604Z,63.38
2022-10-23T01:33:41.275Z,62.69
2022-10-23T01:34:49.090Z,62.09
2022-10-23T01:36:00.246Z,61.61
2022-10-23T01:37:08.201Z,61.27
2022-10-23T01:38:19.465Z,60.92
2022-10-23T01:39:36.023Z,60.63
2022-10-23T01:40:48.793Z,60.37
2022-10-23T01:41:57.074Z,60.20
2022-10-23T01:43:17.361Z,60.04
2022-10-23T01:44:34.244Z,59.87
2022-10-23T01:45:39.838Z,59.78
2022-10-23T01:46:47.356Z,59.72
2022-10-23T01:47:51.005Z,59.65
2022-10-23T01:48:56.150Z,59.60
2022-10-23T01:50:00.920Z,59.50
2022-10-23T01:51:07.945Z,59.56
2022-10-23T01:52:14.571Z,59.30
2022-10-23T01:53:21.932Z,58.99
2022-10-23T01:54:31.449Z,59.66
2022-10-23T01:55:37.154Z,60.53
2022-10-23T01:56:46.579Z,62.13
2022-10-23T01:57:52.080Z,64.53
2022-10-23T01:58:58.266Z,65.73
2022-10-23T02:00:09.563Z,65.58
2022-10-23T02:01:31.119Z,64.66
2022-10-23T02:02:36.203Z,63.86
2022-10-23T02:03:43.099Z,63.13
2022-10-23T02:05:13.502Z,62.56
2022-10-23T02:06:15.663Z,61.85
2022-10-23T02:07:17.450Z,61.50
2022-10-23T02:08:19.218Z,61.19
2022-10-23T02:09:21.108Z,60.90
2022-10-23T02:10:32.424Z,60.61
2022-10-23T02:11:48.412Z,60.35
2022-10-23T02:13:02.904Z,60.10
2022-10-23T02:14:26.124Z,59.95
2022-10-23T02:15:40.700Z,59.83
2022-10-23T02:16:55.199Z,59.66
2022-10-23T02:18:13.435Z,59.64
2022-10-23T02:19:31.877Z,59.54
2022-10-23T02:20:52.313Z,59.53
2022-10-23T02:22:05.035Z,59.48
2022-10-23T02:23:22.897Z,59.39
2022-10-23T02:24:43.660Z,58.74
2022-10-23T02:25:59.175Z,59.25
2022-10-23T02:27:08.141Z,60.78
2022-10-23T02:28:17.805Z,62.31
2022-10-23T02:29:33.638Z,64.12
2022-10-23T02:30:42.189Z,65.10
2022-10-23T02:31:45.374Z,64.74
2022-10-23T02:32:51.435Z,64.02
2022-10-23T02:33:53.804Z,63.26
2022-10-23T02:34:56.996Z,62.67
2022-10-23T02:35:59.173Z,62.10
2022-10-23T02:37:02.929Z,61.69
2022-10-23T02:38:35.484Z,61.33
2022-10-23T02:39:37.394Z,60.88
2022-10-23T02:40:44.337Z,60.65
2022-10-23T02:42:20.506Z,60.41
2022-10-23T02:43:35.779Z,60.13
2022-10-23T02:44:49.918Z,59.92
2022-10-23T02:46:04.642Z,59.72
2022-10-23T02:47:32.668Z,59.52
2022-10-23T02:48:47.943Z,59.09
2022-10-23T02:50:27.904Z,58.58
2022-10-23T02:51:48.660Z,60.03
2022-10-23T02:53:04.079Z,61.65
2022-10-23T02:54:36.264Z,63.31
2022-10-23T02:55:45.518Z,64.99
2022-10-23T02:57:03.370Z,64.80
2022-10-23T02:58:10.669Z,63.81
2022-10-23T02:59:43.910Z,62.91
2022-10-23T03:00:53.886Z,62.05
2022-10-23T03:02:07.020Z,61.52
2022-10-23T03:03:33.693Z,61.07
2022-10-23T03:04:40.452Z,60.62
2022-10-23T03:05:47.238Z,60.27
2022-10-23T03:06:51.110Z,60.06
2022-10-23T03:07:52.985Z,59.90
2022-10-23T03:08:58.119Z,59.74
2022-10-23T03:10:00.078Z,59.59
2022-10-23T03:11:01.854Z,59.45
2022-10-23T03:12:03.686Z,59.03
2022-10-23T03:13:09.311Z,58.68
2022-10-23T03:14:16.079Z,59.51
2022-10-23T03:15:17.955Z,60.74
2022-10-23T03:16:19.616Z,61.74
2022-10-23T03:17:25.824Z,63.58
2022-10-23T03:18:29.489Z,64.89
2022-10-23T03:19:33.150Z,64.93
2022-10-23T03:20:36.293Z,64.20
2022-10-23T03:21:37.999Z,63.46
2022-10-23T03:22:43.057Z,62.62
2022-10-23T03:23:45.509Z,61.92
2022-10-23T03:24:50.919Z,61.38
2022-10-23T03:25:54.090Z,60.99
2022-10-23T03:27:05.386Z,60.63
2022-10-23T03:28:07.244Z,60.36
2022-10-23T03:29:09.785Z,60.11
2022-10-23T03:30:16.530Z,59.91
2022-10-23T03:31:18.533Z,59.73
2022-10-23T03:32:20.406Z,59.55
2022-10-23T03:33:22.417Z,59.36
2022-10-23T03:34:24.049Z,58.72
2022-10-23T03:35:27.732Z,58.72
2022-10-23T03:36:29.373Z,59.64
2022-10-23T03:37:31.211Z,60.87
2022-10-23T03:38:32.924Z,62.28
2022-10-23T03:39:34.875Z,63.78
2022-10-23T03:40:36.667Z,64.89
2022-10-23T03:41:38.356Z,64.89
2022-10-23T03:42:40.025Z,64.28
2022-10-23T03:43:43.228Z,63.60
2022-10-23T03:44:44.951Z,62.89
2022-10-23T03:45:46.704Z,62.24
2022-10-23T03:46:51.003Z,61.71
2022-10-23T03:47:52.711Z,61.31
2022-10-23T03:48:56.852Z,60.97
2022-10-23T03:49:58.591Z,60.65
2022-10-23T03:51:00.298Z,60.26
2022-10-23T03:52:01.978Z,60.04
2022-10-23T03:53:03.784Z,59.87
2022-10-23T03:54:05.709Z,59.68
2022-10-23T03:55:08.015Z,59.57
2022-10-23T03:56:11.438Z,59.53
2022-10-23T03:57:14.444Z,59.38
2022-10-23T03:58:16.129Z,58.81
2022-10-23T03:59:17.784Z,58.79
2022-10-23T04:00:19.618Z,59.67
2022-10-23T04:01:22.309Z,60.81
2022-10-23T04:02:24.836Z,62.13
2022-10-23T04:03:26.994Z,63.87
2022-10-23T04:04:28.657Z,65.05
2022-10-23T04:05:30.354Z,65.07
2022-10-23T04:06:33.397Z,64.45
2022-10-23T04:07:35.258Z,63.67
2022-10-23T04:08:38.107Z,63.04
2022-10-23T04:09:46.531Z,62.37
2022-10-23T04:10:51.118Z,61.80
2022-10-23T04:11:57.202Z,61.46
2022-10-23T04:13:02.149Z,61.13
2022-10-23T04:14:13.351Z,60.80
2022-10-23T04:15:15.046Z,60.58
2022-10-23T04:16:20.078Z,60.33
2022-10-23T04:17:21.845Z,60.16
2022-10-23T04:18:24.649Z,59.98
2022-10-23T04:19:26.963Z,59.78
2022-10-23T04:20:31.620Z,59.65
2022-10-23T04:21:36.716Z,59.50
2022-10-23T04:22:38.468Z,59.19
2022-10-23T04:23:40.492Z,58.71
2022-10-23T04:24:48.101Z,59.23
2022-10-23T04:25:56.225Z,60.09
2022-10-23T04:26:59.152Z,61.42
2022-10-23T04:28:02.466Z,63.05
2022-10-23T04:29:07.970Z,64.77
2022-10-23T04:30:10.316Z,65.19
2022-10-23T04:31:13.039Z,64.81
2022-10-23T04:32:18.128Z,64.05
2022-10-23T04:33:20.116Z,63.35
2022-10-23T04:34:24.360Z,62.68
2022-10-23T04:35:28.180Z,62.16
2022-10-23T04:36:29.940Z,61.73
2022-10-23T04:37:36.688Z,61.38
2022-10-23T04:38:38.370Z,61.08
2022-10-23T04:39:41.460Z,60.87
2022-10-23T04:40:48.060Z,60.60
2022-10-23T04:41:54.736Z,60.43
2022-10-23T04:42:59.097Z,60.25
2022-10-23T04:44:01.403Z,60.14
2022-10-23T04:45:04.515Z,60.02
2022-10-23T04:46:07.870Z,59.88
2022-10-23T04:47:09.570Z,59.75
2022-10-23T04:48:23.423Z,59.64
2022-10-23T04:49:45.717Z,59.48
2022-10-23T04:51:02.034Z,59.21
2022-10-23T04:52:23.111Z,58.78
2022-10-23T04:54:09.508Z,60.35
2022-10-23T04:55:29.505Z,62.27
2022-10-23T04:56:45.699Z,64.01
2022-10-23T04:57:52.128Z,65.02
2022-10-23T04:58:57.979Z,64.80
2022-10-23T04:59:59.817Z,64.13
2022-10-23T05:01:02.372Z,63.44
2022-10-23T05:02:04.487Z,62.76
2022-10-23T05:03:06.182Z,62.25
2022-10-23T05:04:14.427Z,61.83
2022-10-23T05:05:54.669Z,61.22
2022-10-23T05:07:12.051Z,60.83
2022-10-23T05:08:32.733Z,60.54
2022-10-23T05:09:46.418Z,60.28
2022-10-23T05:10:57.626Z,60.04
2022-10-23T05:11:59.483Z,59.85
2022-10-23T05:13:01.936Z,59.67
2022-10-23T05:14:03.989Z,59.51
2022-10-23T05:15:06.598Z,59.05
2022-10-23T05:16:08.505Z,58.62
2022-10-23T05:17:24.285Z,59.13
2022-10-23T05:18:40.754Z,60.19
2022-10-23T05:19:50.658Z,61.84
2022-10-23T05:21:01.452Z,63.73
2022-10-23T05:22:05.906Z,65.10
2022-10-23T05:23:31.406Z,65.17
2022-10-23T05:24:36.436Z,64.55
2022-10-23T05:25:39.371Z,63.89
2022-10-23T05:26:54.662Z,63.19
2022-10-23T05:27:56.464Z,62.58
2022-10-23T05:28:58.225Z,62.20
2022-10-23T05:30:00.209Z,61.81
2022-10-23T05:31:06.176Z,61.49
2022-10-23T05:32:15.813Z,61.24
2022-10-23T05:33:18.327Z,60.98
2022-10-23T05:34:25.612Z,60.84
2022-10-23T05:35:29.784Z,60.71
2022-10-23T05:36:32.143Z,60.57
2022-10-23T05:37:34.571Z,60.51
2022-10-23T05:39:09.727Z,60.38
2022-10-23T05:40:12.310Z,60.28
2022-10-23T05:41:15.625Z,60.17
2022-10-23T05:42:17.689Z,60.08
2022-10-23T05:43:20.144Z,60.05
2022-10-23T05:44:30.624Z,59.98
2022-10-23T05:45:45.099Z,59.93
2022-10-23T05:47:01.611Z,59.88
2022-10-23T05:48:33.923Z,59.86
2022-10-23T05:50:06.517Z,59.82
2022-10-23T05:51:11.878Z,59.79
2022-10-23T05:53:03.688Z,59.65
2022-10-23T05:54:26.248Z,59.54
2022-10-23T05:55:46.626Z,59.42
2022-10-23T05:57:04.352Z,58.83
2022-10-23T05:58:08.586Z,58.93
2022-10-23T05:59:28.870Z,60.19
2022-10-23T06:00:36.846Z,61.63
2022-10-23T06:01:49.441Z,62.61
2022-10-23T06:02:56.435Z,64.54
2022-10-23T06:04:05.884Z,65.41
2022-10-23T06:05:52.360Z,64.79
2022-10-23T06:06:56.643Z,64.10
2022-10-23T06:07:59.220Z,63.53
2022-10-23T06:09:01.748Z,62.98
2022-10-23T06:10:05.702Z,62.54
2022-10-23T06:11:11.254Z,62.18
2022-10-23T06:12:13.041Z,61.89
2022-10-23T06:13:17.787Z,61.56
2022-10-23T06:14:19.603Z,61.43
2022-10-23T06:15:23.029Z,61.18
2022-10-23T06:16:31.669Z,61.07
2022-10-23T06:17:33.454Z,60.90
2022-10-23T06:18:35.278Z,60.78
2022-10-23T06:19:40.981Z,60.61
2022-10-23T06:20:42.656Z,60.50
2022-10-23T06:21:48.330Z,60.40
2022-10-23T06:22:50.033Z,60.36
2022-10-23T06:24:13.663Z,60.20
2022-10-23T06:25:23.642Z,60.11
2022-10-23T06:26:28.015Z,60.05
2022-10-23T06:27:42.127Z,60.02
2022-10-23T06:28:46.023Z,59.99
2022-10-23T06:29:47.769Z,60.02
2022-10-23T06:30:49.711Z,60.06
2022-10-23T06:31:51.425Z,60.08
2022-10-23T06:32:54.052Z,60.06
2022-10-23T06:33:57.037Z,60.04
2022-10-23T06:34:58.762Z,60.02
2022-10-23T06:36:00.949Z,60.00
2022-10-23T06:37:02.797Z,59.98
2022-10-23T06:38:18.658Z,59.94
2022-10-23T06:39:29.824Z,59.90
2022-10-23T06:40:42.532Z,59.97
2022-10-23T06:41:45.457Z,60.11
2022-10-23T06:42:51.621Z,60.08
2022-10-23T06:44:22.569Z,60.06
2022-10-23T06:45:30.166Z,60.07
2022-10-23T06:46:50.170Z,60.12
2022-10-23T06:48:10.927Z,60.12
2022-10-23T06:49:18.546Z,60.22
2022-10-23T06:50:22.630Z,60.23
2022-10-23T06:51:25.036Z,60.27
2022-10-23T06:52:47.808Z,60.41
2022-10-23T06:53:51.827Z,60.51
2022-10-23T06:55:13.560Z,60.53
2022-10-23T06:56:16.005Z,60.49
2022-10-23T06:57:18.066Z,60.53
2022-10-23T06:58:21.304Z,60.51
2022-10-23T06:59:32.983Z,60.50
2022-10-23T07:00:38.662Z,60.43
2022-10-23T07:01:41.263Z,60.36
2022-10-23T07:02:44.533Z,60.35
2022-10-23T07:03:48.996Z,60.39
2022-10-23T07:04:52.760Z,60.42
2022-10-23T07:05:54.485Z,60.42
2022-10-23T07:06:57.269Z,60.45
2022-10-23T07:08:02.159Z,60.44
2022-10-23T07:09:05.991Z,60.42
2022-10-23T07:10:26.816Z,60.41
2022-10-23T07:11:33.490Z,60.47
2022-10-23T07:12:36.304Z,60.48
2022-10-23T07:14:27.200Z,60.43
2022-10-23T07:15:35.687Z,60.42
2022-10-23T07:16:37.887Z,60.42
2022-10-23T07:17:39.756Z,60.46
2022-10-23T07:18:43.526Z,60.50
2022-10-23T07:20:03.828Z,60.53
2022-10-23T07:21:05.891Z,60.54
2022-10-23T07:22:09.730Z,60.60
2022-10-23T07:23:21.463Z,60.64
2022-10-23T07:24:23.310Z,60.67
2022-10-23T07:25:27.162Z,60.66
2022-10-23T07:26:29.407Z,60.63
2022-10-23T07:27:36.762Z,60.63
2022-10-23T07:28:39.029Z,60.62
2022-10-23T07:29:40.908Z,60.59
2022-10-23T07:30:43.174Z,60.56
2022-10-23T07:31:46.195Z,60.50
2022-10-23T07:33:19.979Z,60.43
2022-10-23T07:34:32.378Z,60.30
2022-10-23T07:35:50.095Z,60.29
2022-10-23T07:36:59.713Z,60.24
2022-10-23T07:38:02.467Z,60.20
2022-10-23T07:39:06.805Z,60.18
2022-10-23T07:40:11.583Z,60.12
2022-10-23T07:41:18.081Z,60.12
2022-10-23T07:42:20.237Z,60.09
2022-10-23T07:43:23.986Z,60.07
2022-10-23T07:44:27.747Z,60.05
2022-10-23T07:45:29.804Z,60.05
2022-10-23T07:46:32.023Z,60.04
2022-10-23T07:47:34.156Z,60.07
2022-10-23T07:48:38.983Z,60.13
2022-10-23T07:49:40.875Z,60.15
2022-10-23T07:50:42.824Z,60.15
2022-10-23T07:51:49.003Z,60.19
2022-10-23T07:52:54.020Z,60.34
2022-10-23T07:53:59.213Z,60.46
2022-10-23T07:55:26.426Z,60.51
2022-10-23T07:56:33.118Z,60.54
2022-10-23T07:57:47.232Z,60.53
2022-10-23T07:59:05.093Z,60.51
2022-10-23T08:00:10.110Z,60.46
2022-10-23T08:01:23.834Z,60.35
2022-10-23T08:02:25.863Z,60.29
2022-10-23T08:03:31.252Z,60.30
2022-10-23T08:04:34.345Z,60.33
2022-10-23T08:05:43.478Z,60.34
2022-10-23T08:06:45.387Z,60.35
2022-10-23T08:07:47.452Z,60.34
2022-10-23T08:08:49.359Z,60.32
2022-10-23T08:09:51.155Z,60.28
2022-10-23T08:10:55.509Z,60.20
2022-10-23T08:12:01.735Z,60.11
2022-10-23T08:13:04.539Z,60.04
2022-10-23T08:14:22.599Z,59.95
2022-10-23T08:15:24.809Z,59.86
2022-10-23T08:16:31.562Z,59.80
2022-10-23T08:17:36.028Z,59.67
2022-10-23T08:18:45.723Z,59.58
2022-10-23T08:19:48.568Z,59.52
2022-10-23T08:20:52.536Z,59.49
2022-10-23T08:21:55.322Z,59.53
2022-10-23T08:22:57.167Z,59.56
2022-10-23T08:24:01.241Z,59.59
2022-10-23T08:25:03.493Z,59.57
2022-10-23T08:26:07.426Z,59.71
2022-10-23T08:27:09.889Z,59.78
2022-10-23T08:28:17.219Z,59.79
2022-10-23T08:29:26.661Z,59.78
2022-10-23T08:30:28.922Z,59.82
2022-10-23T08:31:33.194Z,59.83
2022-10-23T08:32:53.810Z,59.79
2022-10-23T08:33:55.681Z,59.77
2022-10-23T08:34:57.542Z,59.73
2022-10-23T08:36:00.153Z,59.67
2022-10-23T08:37:05.705Z,59.63
2022-10-23T08:38:10.748Z,59.64
2022-10-23T08:39:17.116Z,59.68
2022-10-23T08:40:37.255Z,59.70
2022-10-23T08:41:54.657Z,59.62
2022-10-23T08:43:06.525Z,59.61
2022-10-23T08:44:27.354Z,59.60
2022-10-23T08:45:38.400Z,59.61
2022-10-23T08:47:00.470Z,59.54
2022-10-23T08:49:20.747Z,59.52
2022-10-23T08:50:47.149Z,59.48
2022-10-23T08:51:53.503Z,59.33
2022-10-23T08:53:05.529Z,58.72
2022-10-23T08:54:34.217Z,59.19
2022-10-23T08:55:47.105Z,60.30
2022-10-23T08:56:57.326Z,61.63
2022-10-23T08:58:11.050Z,63.38
2022-10-23T08:59:38.249Z,65.63
2022-10-23T09:00:40.089Z,65.56
2022-10-23T09:01:55.895Z,65.00
2022-10-23T09:03:02.030Z,64.04
2022-10-23T09:04:05.554Z,63.46
2022-10-23T09:05:20.021Z,62.92
2022-10-23T09:06:35.567Z,62.33
2022-10-23T09:07:52.382Z,61.80
2022-10-23T09:09:17.736Z,61.30
2022-10-23T09:10:22.667Z,61.03
2022-10-23T09:11:37.777Z,60.82
2022-10-23T09:12:40.030Z,60.60
2022-10-23T09:14:19.227Z,60.37
2022-10-23T09:15:31.619Z,60.11
2022-10-23T09:16:54.379Z,60.01
2022-10-23T09:18:06.741Z,59.80
2022-10-23T09:19:20.582Z,59.62
2022-10-23T09:20:31.621Z,59.45
2022-10-23T09:21:33.394Z,59.41
2022-10-23T09:22:35.651Z,58.88
2022-10-23T09:23:37.965Z,58.52
2022-10-23T09:24:43.545Z,59.21
2022-10-23T09:25:47.737Z,60.72
2022-10-23T09:26:53.387Z,61.87
2022-10-23T09:28:00.161Z,63.16
2022-10-23T09:29:27.377Z,64.92
2022-10-23T09:30:39.337Z,65.44
2022-10-23T09:31:52.322Z,64.90
2022-10-23T09:32:54.401Z,64.12
2022-10-23T09:33:59.747Z,63.49
2022-10-23T09:35:01.896Z,62.94
2022-10-23T09:36:08.355Z,62.49
2022-10-23T09:37:28.442Z,61.96
2022-10-23T09:38:34.325Z,61.59
2022-10-23T09:39:36.797Z,61.31
2022-10-23T09:40:42.972Z,61.16
2022-10-23T09:41:45.845Z,60.88
2022-10-23T09:42:55.894Z,60.67
2022-10-23T09:44:07.748Z,60.54
2022-10-23T09:45:32.523Z,60.40
2022-10-23T09:46:38.603Z,60.21
2022-10-23T09:47:40.621Z,60.11
2022-10-23T09:48:42.663Z,60.08
2022-10-23T09:49:50.303Z,60.05
2022-10-23T09:50:54.358Z,59.89
2022-10-23T09:52:08.269Z,59.77
2022-10-23T09:53:18.172Z,59.56
2022-10-23T09:54:24.274Z,59.53
2022-10-23T09:55:27.769Z,59.34
2022-10-23T09:56:41.805Z,58.63
2022-10-23T09:57:45.128Z,58.82
2022-10-23T09:59:00.842Z,60.05
2022-10-23T10:00:17.026Z,61.52
2022-10-23T10:01:32.850Z,63.17
2022-10-23T10:03:05.399Z,65.30
2022-10-23T10:04:17.479Z,64.85
2022-10-23T10:05:30.071Z,64.00
2022-10-23T10:06:35.371Z,62.97
2022-10-23T10:07:38.243Z,62.34
2022-10-23T10:08:50.920Z,61.96
2022-10-23T10:09:55.411Z,61.35
2022-10-23T10:11:27.665Z,60.78
2022-10-23T10:12:35.770Z,60.23
2022-10-23T10:14:31.029Z,59.71
2022-10-23T10:15:52.995Z,58.58
2022-10-23T10:17:05.072Z,58.33
2022-10-23T10:18:36.138Z,59.05
2022-10-23T10:20:07.723Z,60.74
2022-10-23T10:21:25.221Z,62.40
2022-10-23T10:22:40.881Z,64.49
2022-10-23T10:24:02.550Z,65.59
2022-10-23T10:25:18.496Z,65.25
2022-10-23T10:27:06.335Z,64.34
2022-10-23T10:28:45.573Z,62.67
2022-10-23T10:30:37.746Z,61.57
2022-10-23T10:32:12.132Z,60.94
2022-10-23T10:33:58.457Z,60.38
2022-10-23T10:35:09.027Z,59.84
2022-10-23T10:36:39.829Z,59.28
2022-10-23T10:38:11.364Z,58.32
2022-10-23T10:39:35.524Z,58.83
2022-10-23T10:40:47.263Z,60.48
2022-10-23T10:42:08.763Z,61.64
2022-10-23T10:43:22.600Z,62.51
2022-10-23T10:45:01.848Z,64.47
2022-10-23T10:46:34.299Z,65.47
2022-10-23T10:48:06.424Z,64.41
2022-10-23T10:50:01.276Z,62.85
2022-10-23T10:51:27.149Z,61.68
2022-10-23T10:52:36.657Z,60.84
2022-10-23T10:53:57.950Z,60.47
2022-10-23T10:55:16.863Z,59.82
2022-10-23T10:56:23.183Z,59.53
2022-10-23T10:57:31.188Z,59.23
2022-10-23T10:58:45.009Z,58.20
2022-10-23T10:59:53.098Z,58.30
2022-10-23T11:01:00.587Z,59.04
2022-10-23T11:02:21.758Z,60.21
2022-10-23T11:03:48.719Z,61.86
2022-10-23T11:05:21.017Z,63.36
2022-10-23T11:06:30.469Z,64.94
2022-10-23T11:07:41.773Z,64.82
2022-10-23T11:08:56.447Z,63.87
2022-10-23T11:10:12.273Z,62.66
2022-10-23T11:11:23.187Z,62.02
2022-10-23T11:12:28.124Z,61.39
2022-10-23T11:13:40.517Z,60.91
2022-10-23T11:14:43.811Z,60.41
2022-10-23T11:15:46.675Z,59.79
2022-10-23T11:17:09.449Z,59.59
2022-10-23T11:18:25.807Z,59.35
2022-10-23T11:19:40.439Z,58.33
2022-10-23T11:20:53.862Z,58.17
2022-10-23T11:22:03.204Z,58.91
2022-10-23T11:23:31.180Z,60.14
2022-10-23T11:24:35.627Z,61.58
2022-10-23T11:25:50.726Z,62.94
2022-10-23T11:27:31.187Z,64.82
2022-10-23T11:28:51.068Z,64.50
2022-10-23T11:30:17.713Z,63.47
2022-10-23T11:31:31.235Z,62.22
2022-10-23T11:32:57.545Z,61.23
2022-10-23T11:34:16.666Z,60.29
2022-10-23T11:35:46.425Z,59.60
2022-10-23T11:36:58.499Z,58.25
2022-10-23T11:38:32.139Z,57.88
2022-10-23T11:39:39.083Z,58.94
2022-10-23T11:40:56.861Z,60.41
2022-10-23T11:42:11.657Z,61.51
2022-10-23T11:43:13.536Z,62.43
2022-10-23T11:44:28.220Z,63.71
2022-10-23T11:45:32.470Z,64.48
2022-10-23T11:46:35.792Z,64.21
2022-10-23T11:47:43.314Z,63.44
2022-10-23T11:48:45.184Z,62.33
2022-10-23T11:49:47.014Z,61.23
2022-10-23T11:50:49.560Z,60.60
2022-10-23T11:52:05.443Z,60.06
2022-10-23T11:53:25.560Z,58.98
2022-10-23T11:54:27.823Z,57.90
2022-10-23T11:55:31.762Z,58.02
2022-10-23T11:56:34.298Z,58.72
2022-10-23T11:57:36.179Z,60.29
2022-10-23T11:58:44.516Z,61.45
2022-10-23T11:59:48.837Z,62.63
2022-10-23T12:01:04.100Z,63.92
2022-10-23T12:02:39.660Z,64.16
2022-10-23T12:04:04.469Z,62.79
2022-10-23T12:05:29.611Z,61.08
2022-10-23T12:06:52.579Z,59.94
2022-10-23T12:07:58.787Z,58.71
2022-10-23T12:09:06.868Z,57.59
2022-10-23T12:10:27.018Z,57.75
2022-10-23T12:11:42.376Z,58.84
2022-10-23T12:12:59.288Z,60.05
2022-10-23T12:14:01.071Z,60.83
2022-10-23T12:15:22.164Z,61.22
2022-10-23T12:16:34.740Z,62.59
2022-10-23T12:17:40.200Z,63.93
2022-10-23T12:18:53.149Z,64.10
2022-10-23T12:20:04.258Z,63.07
2022-10-23T12:21:18.355Z,61.66
2022-10-23T12:22:26.271Z,60.03
2022-10-23T12:24:06.734Z,58.99
2022-10-23T12:25:31.722Z,57.01
2022-10-23T12:27:08.739Z,57.10
2022-10-23T12:28:22.359Z,58.93
2022-10-23T12:29:36.779Z,59.52
2022-10-23T12:30:58.720Z,60.24
2022-10-23T12:32:39.104Z,60.59
2022-10-23T12:34:25.507Z,61.45
2022-10-23T12:35:48.783Z,61.78
2022-10-23T12:36:50.516Z,62.67
2022-10-23T12:38:10.622Z,63.45
2022-10-23T12:39:33.412Z,63.41
2022-10-23T12:40:35.305Z,61.35
2022-10-23T12:41:38.955Z,59.95
2022-10-23T12:42:41.665Z,57.35
2022-10-23T12:43:53.374Z,56.17
2022-10-23T12:45:29.659Z,55.68
2022-10-23T12:46:41.307Z,56.09
2022-10-23T12:47:46.519Z,56.56
2022-10-23T12:48:53.079Z,57.12
2022-10-23T12:49:55.005Z,57.98
2022-10-23T12:50:57.628Z,58.61
2022-10-23T12:52:02.752Z,59.08
2022-10-23T12:53:08.426Z,59.26
2022-10-23T12:54:17.061Z,59.21
2022-10-23T12:55:19.486Z,59.48
2022-10-23T12:56:22.413Z,59.76
2022-10-23T12:57:28.134Z,60.27
2022-10-23T12:58:35.352Z,60.63
2022-10-23T12:59:41.865Z,60.84
2022-10-23T13:00:54.694Z,60.89
2022-10-23T13:01:56.670Z,60.68
2022-10-23T13:03:02.197Z,60.89
2022-10-23T13:04:29.761Z,60.90
2022-10-23T13:05:32.671Z,61.62
2022-10-23T13:06:35.107Z,61.87
2022-10-23T13:07:44.671Z,61.88
2022-10-23T13:08:48.852Z,62.14
2022-10-23T13:10:16.038Z,62.83
2022-10-23T13:11:28.596Z,63.76
2022-10-23T13:12:35.557Z,63.67
2022-10-23T13:13:41.027Z,62.43
2022-10-23T13:14:57.524Z,60.81
2022-10-23T13:15:59.508Z,58.96
2022-10-23T13:17:06.774Z,57.28
2022-10-23T13:18:11.280Z,56.57
2022-10-23T13:19:24.523Z,56.69
2022-10-23T13:20:29.609Z,57.36
2022-10-23T13:21:32.782Z,58.15
2022-10-23T13:22:34.717Z,59.11
2022-10-23T13:23:36.614Z,60.09
2022-10-23T13:24:41.319Z,60.27
2022-10-23T13:25:44.814Z,60.99
2022-10-23T13:26:46.731Z,61.43
2022-10-23T13:27:48.845Z,61.83
2022-10-23T13:28:51.018Z,62.33
2022-10-23T13:29:53.307Z,62.99
2022-10-23T13:31:00.955Z,63.42
2022-10-23T13:32:13.107Z,62.54
2022-10-23T13:33:20.663Z,60.81
2022-10-23T13:34:26.142Z,59.56
2022-10-23T13:35:28.237Z,56.95
2022-10-23T13:36:35.872Z,55.48
2022-10-23T13:37:39.100Z,55.36
2022-10-23T13:38:43.978Z,55.89
2022-10-23T13:39:45.836Z,56.76
2022-10-23T13:40:56.471Z,57.43
2022-10-23T13:42:18.398Z,58.27
2022-10-23T13:43:26.865Z,58.97
2022-10-23T13:44:28.988Z,59.23
2022-10-23T13:45:30.750Z,59.91
2022-10-23T13:46:33.149Z,60.38
2022-10-23T13:47:34.894Z,60.45
2022-10-23T13:48:36.610Z,61.07
2022-10-23T13:49:38.482Z,61.67
2022-10-23T13:50:40.200Z,62.00
2022-10-23T13:51:49.941Z,62.38
2022-10-23T13:52:52.793Z,63.28
2022-10-23T13:53:56.235Z,63.89
2022-10-23T13:54:57.942Z,63.22
2022-10-23T13:56:00.000Z,61.99
2022-10-23T13:57:01.940Z,60.68
2022-10-23T13:58:03.689Z,59.52
2022-10-23T13:59:05.393Z,57.92
2022-10-23T14:00:07.977Z,56.97
2022-10-23T14:01:26.872Z,57.04
2022-10-23T14:02:28.875Z,57.79
2022-10-23T14:03:30.739Z,58.47
2022-10-23T14:04:32.538Z,59.37
2022-10-23T14:05:34.381Z,60.05
2022-10-23T14:06:37.531Z,60.81
2022-10-23T14:07:39.782Z,61.52
2022-10-23T14:08:42.567Z,62.22
2022-10-23T14:09:44.690Z,63.19
2022-10-23T14:10:46.609Z,63.99
2022-10-23T14:11:48.413Z,63.32
2022-10-23T14:12:54.957Z,61.98
2022-10-23T14:13:56.812Z,60.62
2022-10-23T14:14:58.559Z,59.23
2022-10-23T14:16:00.258Z,57.47
2022-10-23T14:17:02.005Z,56.55
2022-10-23T14:18:08.068Z,56.48
2022-10-23T14:19:11.851Z,56.83
2022-10-23T14:20:13.669Z,57.29
2022-10-23T14:21:20.218Z,57.83
2022-10-23T14:22:21.970Z,58.27
2022-10-23T14:23:24.220Z,58.58
2022-10-23T14:24:26.115Z,58.96
2022-10-23T14:25:27.893Z,59.07
2022-10-23T14:26:30.448Z,59.04
2022-10-23T14:27:32.273Z,59.34
2022-10-23T14:28:34.553Z,59.67
2022-10-23T14:29:36.234Z,60.06
2022-10-23T14:30:38.254Z,60.44
2022-10-23T14:31:39.971Z,60.69
2022-10-23T14:32:42.216Z,60.84
2022-10-23T14:33:45.965Z,61.02
2022-10-23T14:34:53.093Z,61.18
2022-10-23T14:35:54.874Z,61.31
2022-10-23T14:37:07.972Z,61.57
2022-10-23T14:38:10.501Z,61.80
2022-10-23T14:39:12.277Z,62.01
2022-10-23T14:40:14.040Z,62.21
2022-10-23T14:41:17.402Z,62.41
2022-10-23T14:42:19.189Z,62.97
2022-10-23T14:43:22.891Z,63.53
2022-10-23T14:44:24.839Z,62.84
2022-10-23T14:45:26.613Z,61.61
2022-10-23T14:46:29.591Z,60.29
2022-10-23T14:47:31.699Z,58.83
2022-10-23T14:48:37.674Z,57.13
2022-10-23T14:49:40.350Z,56.49
2022-10-23T14:50:45.477Z,56.84
2022-10-23T14:51:47.227Z,57.46
2022-10-23T14:52:49.004Z,58.08
2022-10-23T14:54:01.853Z,58.78
2022-10-23T14:55:03.834Z,59.47
2022-10-23T14:56:06.274Z,60.02
2022-10-23T14:57:08.030Z,60.55
2022-10-23T14:58:09.801Z,61.02